sensor_id;sensor_type;location;lat;lon;timestamp;P1;durP1;ratioP1;P2;durP2;ratioP2
36501;SDS011;25393;46.108;3.390;2022-07-12T00:01:23;3.03;;;2.90;;
36501;SDS011;25393;46.108;3.390;2022-07-12T00:03:49;2.90;;;2.75;;
36501;SDS011;25393;46.108;3.390;2022-07-12T00:06:16;3.10;;;2.90;;
36501;SDS011;25393;46.108;3.390;2022-07-12T00:08:43;3.17;;;2.80;;
36501;SDS011;25393;46.108;3.390;2022-07-12T00:11:09;3.13;;;2.83;;
36501;SDS011;25393;46.108;3.390;2022-07-12T00:13:36;5.05;;;2.72;;
36501;SDS011;25393;46.108;3.390;2022-07-12T00:16:02;2.78;;;2.60;;
36501;SDS011;25393;46.108;3.390;2022-07-12T00:18:30;3.13;;;2.95;;
36501;SDS011;25393;46.108;3.390;2022-07-12T00:20:56;3.00;;;2.80;;
36501;SDS011;25393;46.108;3.390;2022-07-12T00:23:23;2.75;;;2.65;;
36501;SDS011;25393;46.108;3.390;2022-07-12T00:25:49;4.70;;;2.88;;
36501;SDS011;25393;46.108;3.390;2022-07-12T00:28:16;3.00;;;2.80;;
36501;SDS011;25393;46.108;3.390;2022-07-12T00:30:43;2.80;;;2.70;;
36501;SDS011;25393;46.108;3.390;2022-07-12T00:33:09;4.75;;;2.65;;
36501;SDS011;25393;46.108;3.390;2022-07-12T00:35:36;2.70;;;2.50;;
36501;SDS011;25393;46.108;3.390;2022-07-12T00:38:02;3.08;;;2.80;;
36501;SDS011;25393;46.108;3.390;2022-07-12T00:40:29;2.90;;;2.70;;
36501;SDS011;25393;46.108;3.390;2022-07-12T00:42:56;2.80;;;2.60;;
36501;SDS011;25393;46.108;3.390;2022-07-12T00:45:22;3.00;;;2.80;;
36501;SDS011;25393;46.108;3.390;2022-07-12T00:47:49;3.05;;;2.90;;
36501;SDS011;25393;46.108;3.390;2022-07-12T00:50:18;3.35;;;3.15;;
36501;SDS011;25393;46.108;3.390;2022-07-12T00:52:49;3.08;;;2.90;;
36501;SDS011;25393;46.108;3.390;2022-07-12T00:55:17;2.88;;;2.70;;
36501;SDS011;25393;46.108;3.390;2022-07-12T00:57:45;3.78;;;3.05;;
36501;SDS011;25393;46.108;3.390;2022-07-12T01:00:25;3.03;;;2.83;;
36501;SDS011;25393;46.108;3.390;2022-07-12T01:02:54;4.05;;;2.92;;
36501;SDS011;25393;46.108;3.390;2022-07-12T01:05:22;3.15;;;2.85;;
36501;SDS011;25393;46.108;3.390;2022-07-12T01:07:49;2.95;;;2.75;;
36501;SDS011;25393;46.108;3.390;2022-07-12T01:10:16;2.78;;;2.58;;
36501;SDS011;25393;46.108;3.390;2022-07-12T01:12:43;6.80;;;2.90;;
36501;SDS011;25393;46.108;3.390;2022-07-12T01:15:10;3.05;;;2.85;;
36501;SDS011;25393;46.108;3.390;2022-07-12T01:17:36;3.00;;;2.90;;
36501;SDS011;25393;46.108;3.390;2022-07-12T01:20:05;3.20;;;3.00;;
36501;SDS011;25393;46.108;3.390;2022-07-12T01:22:35;3.20;;;2.90;;
36501;SDS011;25393;46.108;3.390;2022-07-12T01:25:07;3.45;;;3.00;;
36501;SDS011;25393;46.108;3.390;2022-07-12T01:27:33;3.13;;;2.92;;
36501;SDS011;25393;46.108;3.390;2022-07-12T01:30:02;3.17;;;2.90;;
36501;SDS011;25393;46.108;3.390;2022-07-12T01:32:30;3.42;;;3.03;;
36501;SDS011;25393;46.108;3.390;2022-07-12T01:34:58;6.65;;;3.55;;
36501;SDS011;25393;46.108;3.390;2022-07-12T01:37:38;3.30;;;3.00;;
36501;SDS011;25393;46.108;3.390;2022-07-12T01:40:09;3.55;;;3.25;;
36501;SDS011;25393;46.108;3.390;2022-07-12T01:42:37;3.00;;;2.72;;
36501;SDS011;25393;46.108;3.390;2022-07-12T01:45:04;3.20;;;2.92;;
36501;SDS011;25393;46.108;3.390;2022-07-12T01:47:33;3.40;;;3.00;;
36501;SDS011;25393;46.108;3.390;2022-07-12T01:50:00;3.33;;;3.03;;
36501;SDS011;25393;46.108;3.390;2022-07-12T01:52:27;2.90;;;2.70;;
36501;SDS011;25393;46.108;3.390;2022-07-12T01:54:54;3.25;;;3.05;;
36501;SDS011;25393;46.108;3.390;2022-07-12T01:57:21;3.65;;;2.70;;
36501;SDS011;25393;46.108;3.390;2022-07-12T01:59:47;4.50;;;2.72;;
36501;SDS011;25393;46.108;3.390;2022-07-12T02:02:14;3.10;;;3.00;;
36501;SDS011;25393;46.108;3.390;2022-07-12T02:04:41;3.38;;;2.90;;
36501;SDS011;25393;46.108;3.390;2022-07-12T02:07:07;5.15;;;3.25;;
36501;SDS011;25393;46.108;3.390;2022-07-12T02:09:34;2.83;;;2.72;;
36501;SDS011;25393;46.108;3.390;2022-07-12T02:12:01;3.13;;;2.90;;
36501;SDS011;25393;46.108;3.390;2022-07-12T02:14:28;6.10;;;2.75;;
36501;SDS011;25393;46.108;3.390;2022-07-12T02:16:55;2.95;;;2.85;;
36501;SDS011;25393;46.108;3.390;2022-07-12T02:19:21;2.90;;;2.80;;
36501;SDS011;25393;46.108;3.390;2022-07-12T02:21:48;2.90;;;2.70;;
36501;SDS011;25393;46.108;3.390;2022-07-12T02:24:15;4.00;;;3.70;;
36501;SDS011;25393;46.108;3.390;2022-07-12T02:26:41;3.28;;;2.70;;
36501;SDS011;25393;46.108;3.390;2022-07-12T02:29:09;3.10;;;2.90;;
36501;SDS011;25393;46.108;3.390;2022-07-12T02:31:37;3.50;;;3.30;;
36501;SDS011;25393;46.108;3.390;2022-07-12T02:34:04;3.58;;;3.22;;
36501;SDS011;25393;46.108;3.390;2022-07-12T02:36:31;4.35;;;3.38;;
36501;SDS011;25393;46.108;3.390;2022-07-12T02:38:58;3.30;;;3.10;;
36501;SDS011;25393;46.108;3.390;2022-07-12T02:41:30;3.50;;;3.20;;
36501;SDS011;25393;46.108;3.390;2022-07-12T02:43:57;3.22;;;2.88;;
36501;SDS011;25393;46.108;3.390;2022-07-12T02:46:24;3.65;;;3.35;;
36501;SDS011;25393;46.108;3.390;2022-07-12T02:48:52;5.78;;;3.40;;
36501;SDS011;25393;46.108;3.390;2022-07-12T02:51:19;6.13;;;3.50;;
36501;SDS011;25393;46.108;3.390;2022-07-12T02:53:46;3.80;;;3.25;;
36501;SDS011;25393;46.108;3.390;2022-07-12T02:56:12;3.53;;;3.22;;
36501;SDS011;25393;46.108;3.390;2022-07-12T02:58:39;4.50;;;3.20;;
36501;SDS011;25393;46.108;3.390;2022-07-12T03:01:06;7.97;;;3.22;;
36501;SDS011;25393;46.108;3.390;2022-07-12T03:03:33;4.90;;;3.10;;
36501;SDS011;25393;46.108;3.390;2022-07-12T03:06:00;3.80;;;3.30;;
36501;SDS011;25393;46.108;3.390;2022-07-12T03:08:27;3.40;;;3.10;;
36501;SDS011;25393;46.108;3.390;2022-07-12T03:10:53;3.40;;;3.20;;
36501;SDS011;25393;46.108;3.390;2022-07-12T03:13:20;3.28;;;3.10;;
36501;SDS011;25393;46.108;3.390;2022-07-12T03:15:46;3.25;;;3.10;;
36501;SDS011;25393;46.108;3.390;2022-07-12T03:18:13;3.50;;;3.30;;
36501;SDS011;25393;46.108;3.390;2022-07-12T03:20:40;3.50;;;3.30;;
36501;SDS011;25393;46.108;3.390;2022-07-12T03:23:07;3.28;;;3.10;;
36501;SDS011;25393;46.108;3.390;2022-07-12T03:25:34;4.75;;;3.15;;
36501;SDS011;25393;46.108;3.390;2022-07-12T03:28:02;3.40;;;3.20;;
36501;SDS011;25393;46.108;3.390;2022-07-12T03:30:28;3.42;;;3.13;;
36501;SDS011;25393;46.108;3.390;2022-07-12T03:32:55;3.25;;;2.95;;
36501;SDS011;25393;46.108;3.390;2022-07-12T03:35:22;3.83;;;3.30;;
36501;SDS011;25393;46.108;3.390;2022-07-12T03:37:50;3.13;;;2.95;;
36501;SDS011;25393;46.108;3.390;2022-07-12T03:40:18;3.38;;;3.10;;
36501;SDS011;25393;46.108;3.390;2022-07-12T03:42:46;3.30;;;3.05;;
36501;SDS011;25393;46.108;3.390;2022-07-12T03:45:15;3.35;;;3.03;;
36501;SDS011;25393;46.108;3.390;2022-07-12T03:47:42;4.28;;;3.30;;
36501;SDS011;25393;46.108;3.390;2022-07-12T03:50:10;5.25;;;3.30;;
36501;SDS011;25393;46.108;3.390;2022-07-12T03:52:39;3.20;;;3.00;;
36501;SDS011;25393;46.108;3.390;2022-07-12T03:55:06;3.10;;;2.90;;
36501;SDS011;25393;46.108;3.390;2022-07-12T03:57:34;4.95;;;4.40;;
36501;SDS011;25393;46.108;3.390;2022-07-12T04:00:03;3.70;;;3.50;;
36501;SDS011;25393;46.108;3.390;2022-07-12T04:02:31;5.00;;;4.70;;
36501;SDS011;25393;46.108;3.390;2022-07-12T04:04:58;3.55;;;3.20;;
36501;SDS011;25393;46.108;3.390;2022-07-12T04:07:25;3.15;;;2.95;;
36501;SDS011;25393;46.108;3.390;2022-07-12T04:09:51;3.10;;;2.90;;
36501;SDS011;25393;46.108;3.390;2022-07-12T04:12:18;7.13;;;3.70;;
36501;SDS011;25393;46.108;3.390;2022-07-12T04:14:44;3.72;;;1.98;;
36501;SDS011;25393;46.108;3.390;2022-07-12T04:17:11;3.55;;;2.83;;
36501;SDS011;25393;46.108;3.390;2022-07-12T04:19:37;2.67;;;1.80;;
36501;SDS011;25393;46.108;3.390;2022-07-12T04:22:04;1.65;;;1.55;;
36501;SDS011;25393;46.108;3.390;2022-07-12T04:24:31;3.65;;;1.75;;
36501;SDS011;25393;46.108;3.390;2022-07-12T04:26:57;7.07;;;1.02;;
36501;SDS011;25393;46.108;3.390;2022-07-12T04:29:24;1.00;;;0.77;;
36501;SDS011;25393;46.108;3.390;2022-07-12T04:31:50;1.63;;;1.23;;
36501;SDS011;25393;46.108;3.390;2022-07-12T04:34:17;2.65;;;1.38;;
36501;SDS011;25393;46.108;3.390;2022-07-12T04:36:46;1.00;;;1.00;;
36501;SDS011;25393;46.108;3.390;2022-07-12T04:39:14;0.95;;;0.90;;
36501;SDS011;25393;46.108;3.390;2022-07-12T04:41:41;1.90;;;0.75;;
36501;SDS011;25393;46.108;3.390;2022-07-12T04:44:07;2.20;;;1.10;;
36501;SDS011;25393;46.108;3.390;2022-07-12T04:46:34;2.13;;;0.88;;
36501;SDS011;25393;46.108;3.390;2022-07-12T04:49:01;1.33;;;0.88;;
36501;SDS011;25393;46.108;3.390;2022-07-12T04:51:28;5.78;;;1.02;;
36501;SDS011;25393;46.108;3.390;2022-07-12T04:53:55;2.50;;;1.35;;
36501;SDS011;25393;46.108;3.390;2022-07-12T04:56:22;0.93;;;0.90;;
36501;SDS011;25393;46.108;3.390;2022-07-12T04:58:49;1.10;;;1.00;;
36501;SDS011;25393;46.108;3.390;2022-07-12T05:01:16;1.30;;;1.15;;
36501;SDS011;25393;46.108;3.390;2022-07-12T05:03:44;2.05;;;1.00;;
36501;SDS011;25393;46.108;3.390;2022-07-12T05:06:10;2.67;;;1.75;;
36501;SDS011;25393;46.108;3.390;2022-07-12T05:08:37;1.35;;;1.20;;
36501;SDS011;25393;46.108;3.390;2022-07-12T05:11:05;1.05;;;1.00;;
36501;SDS011;25393;46.108;3.390;2022-07-12T05:13:32;1.35;;;1.05;;
36501;SDS011;25393;46.108;3.390;2022-07-12T05:15:58;1.25;;;1.02;;
36501;SDS011;25393;46.108;3.390;2022-07-12T05:18:25;2.03;;;1.30;;
36501;SDS011;25393;46.108;3.390;2022-07-12T05:20:52;1.17;;;0.90;;
36501;SDS011;25393;46.108;3.390;2022-07-12T05:23:19;10.63;;;1.80;;
36501;SDS011;25393;46.108;3.390;2022-07-12T05:25:46;1.75;;;1.00;;
36501;SDS011;25393;46.108;3.390;2022-07-12T05:28:14;2.45;;;1.15;;
36501;SDS011;25393;46.108;3.390;2022-07-12T05:30:42;4.82;;;1.42;;
36501;SDS011;25393;46.108;3.390;2022-07-12T05:33:11;2.58;;;1.17;;
36501;SDS011;25393;46.108;3.390;2022-07-12T05:35:40;6.97;;;1.10;;
36501;SDS011;25393;46.108;3.390;2022-07-12T05:38:07;1.95;;;1.30;;
36501;SDS011;25393;46.108;3.390;2022-07-12T05:40:34;5.68;;;1.10;;
36501;SDS011;25393;46.108;3.390;2022-07-12T05:43:01;3.47;;;1.05;;
36501;SDS011;25393;46.108;3.390;2022-07-12T05:45:31;4.65;;;1.30;;
36501;SDS011;25393;46.108;3.390;2022-07-12T05:47:57;5.78;;;1.08;;
36501;SDS011;25393;46.108;3.390;2022-07-12T05:50:24;3.03;;;1.33;;
36501;SDS011;25393;46.108;3.390;2022-07-12T05:52:51;5.38;;;1.45;;
36501;SDS011;25393;46.108;3.390;2022-07-12T05:55:36;2.15;;;1.95;;
36501;SDS011;25393;46.108;3.390;2022-07-12T05:58:03;5.97;;;1.55;;
36501;SDS011;25393;46.108;3.390;2022-07-12T06:00:30;2.63;;;2.22;;
36501;SDS011;25393;46.108;3.390;2022-07-12T06:02:59;4.25;;;1.35;;
36501;SDS011;25393;46.108;3.390;2022-07-12T06:05:26;3.65;;;1.50;;
36501;SDS011;25393;46.108;3.390;2022-07-12T06:07:53;5.10;;;3.70;;
36501;SDS011;25393;46.108;3.390;2022-07-12T06:10:20;7.32;;;3.50;;
36501;SDS011;25393;46.108;3.390;2022-07-12T06:12:46;4.80;;;3.63;;
36501;SDS011;25393;46.108;3.390;2022-07-12T06:15:14;3.38;;;3.08;;
36501;SDS011;25393;46.108;3.390;2022-07-12T06:17:41;5.70;;;3.20;;
36501;SDS011;25393;46.108;3.390;2022-07-12T06:20:08;3.47;;;3.20;;
36501;SDS011;25393;46.108;3.390;2022-07-12T06:22:35;5.47;;;3.55;;
36501;SDS011;25393;46.108;3.390;2022-07-12T06:25:02;3.72;;;3.40;;
36501;SDS011;25393;46.108;3.390;2022-07-12T06:27:49;4.63;;;3.30;;
36501;SDS011;25393;46.108;3.390;2022-07-12T06:30:17;3.90;;;3.30;;
36501;SDS011;25393;46.108;3.390;2022-07-12T06:32:45;3.55;;;3.35;;
36501;SDS011;25393;46.108;3.390;2022-07-12T06:35:13;4.20;;;3.50;;
36501;SDS011;25393;46.108;3.390;2022-07-12T06:37:41;3.88;;;3.58;;
36501;SDS011;25393;46.108;3.390;2022-07-12T06:40:08;4.35;;;4.03;;
36501;SDS011;25393;46.108;3.390;2022-07-12T06:42:35;4.00;;;3.70;;
36501;SDS011;25393;46.108;3.390;2022-07-12T06:45:02;9.10;;;3.75;;
36501;SDS011;25393;46.108;3.390;2022-07-12T06:47:30;4.10;;;3.58;;
36501;SDS011;25393;46.108;3.390;2022-07-12T06:49:56;4.03;;;3.70;;
36501;SDS011;25393;46.108;3.390;2022-07-12T06:52:23;3.70;;;3.50;;
36501;SDS011;25393;46.108;3.390;2022-07-12T06:54:56;3.78;;;3.45;;
36501;SDS011;25393;46.108;3.390;2022-07-12T06:57:23;3.50;;;3.30;;
36501;SDS011;25393;46.108;3.390;2022-07-12T06:59:50;4.68;;;3.40;;
36501;SDS011;25393;46.108;3.390;2022-07-12T07:02:17;7.88;;;3.88;;
36501;SDS011;25393;46.108;3.390;2022-07-12T07:04:44;3.78;;;3.50;;
36501;SDS011;25393;46.108;3.390;2022-07-12T07:07:10;5.18;;;3.60;;
36501;SDS011;25393;46.108;3.390;2022-07-12T07:09:43;3.78;;;3.35;;
36501;SDS011;25393;46.108;3.390;2022-07-12T07:12:10;5.32;;;3.30;;
36501;SDS011;25393;46.108;3.390;2022-07-12T07:14:37;4.50;;;3.30;;
36501;SDS011;25393;46.108;3.390;2022-07-12T07:17:04;3.63;;;3.22;;
36501;SDS011;25393;46.108;3.390;2022-07-12T07:19:31;3.97;;;3.58;;
36501;SDS011;25393;46.108;3.390;2022-07-12T07:21:58;3.60;;;3.35;;
36501;SDS011;25393;46.108;3.390;2022-07-12T07:24:25;7.82;;;3.60;;
36501;SDS011;25393;46.108;3.390;2022-07-12T07:26:52;3.30;;;3.10;;
36501;SDS011;25393;46.108;3.390;2022-07-12T07:29:24;3.38;;;3.17;;
36501;SDS011;25393;46.108;3.390;2022-07-12T07:32:09;3.83;;;3.20;;
36501;SDS011;25393;46.108;3.390;2022-07-12T07:34:36;4.25;;;3.40;;
36501;SDS011;25393;46.108;3.390;2022-07-12T07:37:03;3.75;;;3.33;;
36501;SDS011;25393;46.108;3.390;2022-07-12T07:39:33;8.55;;;2.13;;
36501;SDS011;25393;46.108;3.390;2022-07-12T07:42:00;1.70;;;1.60;;
36501;SDS011;25393;46.108;3.390;2022-07-12T07:44:27;2.30;;;1.27;;
36501;SDS011;25393;46.108;3.390;2022-07-12T07:46:59;4.78;;;2.15;;
36501;SDS011;25393;46.108;3.390;2022-07-12T07:49:26;3.58;;;1.20;;
36501;SDS011;25393;46.108;3.390;2022-07-12T07:51:53;3.78;;;3.45;;
36501;SDS011;25393;46.108;3.390;2022-07-12T07:54:20;7.82;;;7.05;;
36501;SDS011;25393;46.108;3.390;2022-07-12T07:56:47;3.50;;;3.20;;
36501;SDS011;25393;46.108;3.390;2022-07-12T07:59:14;1.60;;;1.50;;
36501;SDS011;25393;46.108;3.390;2022-07-12T08:01:41;3.95;;;3.58;;
36501;SDS011;25393;46.108;3.390;2022-07-12T08:04:19;6.70;;;3.40;;
36501;SDS011;25393;46.108;3.390;2022-07-12T08:06:48;4.32;;;3.65;;
36501;SDS011;25393;46.108;3.390;2022-07-12T08:09:16;6.45;;;3.55;;
36501;SDS011;25393;46.108;3.390;2022-07-12T08:11:43;4.50;;;3.63;;
36501;SDS011;25393;46.108;3.390;2022-07-12T08:14:10;4.13;;;3.72;;
36501;SDS011;25393;46.108;3.390;2022-07-12T08:16:37;7.10;;;3.65;;
36501;SDS011;25393;46.108;3.390;2022-07-12T08:19:04;7.70;;;3.45;;
36501;SDS011;25393;46.108;3.390;2022-07-12T08:21:31;9.18;;;3.88;;
36501;SDS011;25393;46.108;3.390;2022-07-12T08:23:57;3.50;;;3.20;;
36501;SDS011;25393;46.108;3.390;2022-07-12T08:26:24;9.13;;;3.67;;
36501;SDS011;25393;46.108;3.390;2022-07-12T08:28:51;7.78;;;3.60;;
36501;SDS011;25393;46.108;3.390;2022-07-12T08:31:18;9.27;;;3.88;;
36501;SDS011;25393;46.108;3.390;2022-07-12T08:33:45;3.95;;;3.65;;
36501;SDS011;25393;46.108;3.390;2022-07-12T08:36:11;4.15;;;3.80;;
36501;SDS011;25393;46.108;3.390;2022-07-12T08:38:38;4.75;;;3.67;;
36501;SDS011;25393;46.108;3.390;2022-07-12T08:41:07;3.72;;;3.42;;
36501;SDS011;25393;46.108;3.390;2022-07-12T08:43:36;4.50;;;4.10;;
36501;SDS011;25393;46.108;3.390;2022-07-12T08:46:03;5.30;;;3.92;;
36501;SDS011;25393;46.108;3.390;2022-07-12T08:48:32;6.13;;;4.10;;
36501;SDS011;25393;46.108;3.390;2022-07-12T08:53:30;11.50;;;3.83;;
36501;SDS011;25393;46.108;3.390;2022-07-12T08:55:59;4.97;;;4.20;;
36501;SDS011;25393;46.108;3.390;2022-07-12T08:58:25;4.60;;;4.07;;
36501;SDS011;25393;46.108;3.390;2022-07-12T09:00:52;11.43;;;3.97;;
36501;SDS011;25393;46.108;3.390;2022-07-12T09:03:19;5.47;;;3.90;;
36501;SDS011;25393;46.108;3.390;2022-07-12T09:05:48;7.70;;;3.50;;
36501;SDS011;25393;46.108;3.390;2022-07-12T09:08:28;4.55;;;3.90;;
36501;SDS011;25393;46.108;3.390;2022-07-12T09:16:20;6.68;;;4.10;;
36501;SDS011;25393;46.108;3.390;2022-07-12T09:18:48;3.90;;;3.60;;
36501;SDS011;25393;46.108;3.390;2022-07-12T09:21:28;6.40;;;4.00;;
36501;SDS011;25393;46.108;3.390;2022-07-12T09:23:58;4.55;;;4.13;;
36501;SDS011;25393;46.108;3.390;2022-07-12T09:26:29;4.13;;;3.80;;
36501;SDS011;25393;46.108;3.390;2022-07-12T09:29:07;4.22;;;3.83;;
36501;SDS011;25393;46.108;3.390;2022-07-12T09:34:29;4.43;;;3.60;;
36501;SDS011;25393;46.108;3.390;2022-07-12T09:37:15;3.55;;;3.25;;
36501;SDS011;25393;46.108;3.390;2022-07-12T09:39:42;6.18;;;3.15;;
36501;SDS011;25393;46.108;3.390;2022-07-12T09:42:11;3.72;;;3.08;;
36501;SDS011;25393;46.108;3.390;2022-07-12T09:44:39;3.63;;;3.33;;
36501;SDS011;25393;46.108;3.390;2022-07-12T09:47:08;3.47;;;3.17;;
36501;SDS011;25393;46.108;3.390;2022-07-12T09:49:40;6.72;;;3.58;;
36501;SDS011;25393;46.108;3.390;2022-07-12T09:52:10;8.38;;;4.00;;
36501;SDS011;25393;46.108;3.390;2022-07-12T09:54:40;5.20;;;3.53;;
36501;SDS011;25393;46.108;3.390;2022-07-12T09:57:26;9.02;;;3.50;;
36501;SDS011;25393;46.108;3.390;2022-07-12T09:59:56;5.18;;;3.30;;
36501;SDS011;25393;46.108;3.390;2022-07-12T10:02:24;6.10;;;3.15;;
36501;SDS011;25393;46.108;3.390;2022-07-12T10:04:51;4.80;;;3.13;;
36501;SDS011;25393;46.108;3.390;2022-07-12T10:07:19;3.28;;;3.00;;
36501;SDS011;25393;46.108;3.390;2022-07-12T10:09:46;3.78;;;3.00;;
36501;SDS011;25393;46.108;3.390;2022-07-12T10:12:16;3.63;;;2.90;;
36501;SDS011;25393;46.108;3.390;2022-07-12T10:14:45;2.92;;;2.70;;
36501;SDS011;25393;46.108;3.390;2022-07-12T10:17:25;3.03;;;2.83;;
36501;SDS011;25393;46.108;3.390;2022-07-12T10:20:41;3.30;;;3.00;;
36501;SDS011;25393;46.108;3.390;2022-07-12T10:22:52;5.18;;;3.30;;
36501;SDS011;25393;46.108;3.390;2022-07-12T10:27:52;3.10;;;2.90;;
36501;SDS011;25393;46.108;3.390;2022-07-12T10:30:22;3.08;;;2.78;;
36501;SDS011;25393;46.108;3.390;2022-07-12T10:32:53;3.38;;;3.08;;
36501;SDS011;25393;46.108;3.390;2022-07-12T10:35:25;2.97;;;2.70;;
36501;SDS011;25393;46.108;3.390;2022-07-12T10:40:40;2.95;;;2.75;;
36501;SDS011;25393;46.108;3.390;2022-07-12T10:45:41;3.40;;;3.10;;
36501;SDS011;25393;46.108;3.390;2022-07-12T10:48:18;4.38;;;2.55;;
36501;SDS011;25393;46.108;3.390;2022-07-12T10:53:22;3.22;;;3.03;;
36501;SDS011;25393;46.108;3.390;2022-07-12T10:58:32;2.75;;;2.60;;
36501;SDS011;25393;46.108;3.390;2022-07-12T11:01:07;2.83;;;2.63;;
36501;SDS011;25393;46.108;3.390;2022-07-12T11:03:42;4.70;;;2.45;;
36501;SDS011;25393;46.108;3.390;2022-07-12T11:06:14;4.57;;;2.65;;
36501;SDS011;25393;46.108;3.390;2022-07-12T11:08:55;3.08;;;2.90;;
36501;SDS011;25393;46.108;3.390;2022-07-12T11:11:23;2.67;;;2.53;;
36501;SDS011;25393;46.108;3.390;2022-07-12T11:13:51;2.80;;;2.60;;
36501;SDS011;25393;46.108;3.390;2022-07-12T11:16:18;2.45;;;2.30;;
36501;SDS011;25393;46.108;3.390;2022-07-12T11:18:45;2.50;;;2.40;;
36501;SDS011;25393;46.108;3.390;2022-07-12T11:21:12;2.60;;;2.40;;
36501;SDS011;25393;46.108;3.390;2022-07-12T11:23:39;5.53;;;2.60;;
36501;SDS011;25393;46.108;3.390;2022-07-12T11:26:09;3.17;;;2.67;;
36501;SDS011;25393;46.108;3.390;2022-07-12T11:28:37;2.80;;;2.60;;
36501;SDS011;25393;46.108;3.390;2022-07-12T11:31:07;5.43;;;3.10;;
36501;SDS011;25393;46.108;3.390;2022-07-12T11:33:35;2.92;;;2.72;;
36501;SDS011;25393;46.108;3.390;2022-07-12T11:36:04;4.32;;;2.53;;
36501;SDS011;25393;46.108;3.390;2022-07-12T11:38:33;2.55;;;2.35;;
36501;SDS011;25393;46.108;3.390;2022-07-12T11:41:09;2.72;;;2.53;;
36501;SDS011;25393;46.108;3.390;2022-07-12T11:43:37;3.17;;;2.88;;
36501;SDS011;25393;46.108;3.390;2022-07-12T11:46:06;3.15;;;2.67;;
36501;SDS011;25393;46.108;3.390;2022-07-12T11:48:35;3.15;;;2.45;;
36501;SDS011;25393;46.108;3.390;2022-07-12T11:51:03;2.35;;;2.25;;
36501;SDS011;25393;46.108;3.390;2022-07-12T11:53:32;12.93;;;3.13;;
36501;SDS011;25393;46.108;3.390;2022-07-12T11:56:00;5.35;;;2.80;;
36501;SDS011;25393;46.108;3.390;2022-07-12T11:58:28;3.15;;;2.47;;
36501;SDS011;25393;46.108;3.390;2022-07-12T12:00:55;2.60;;;2.40;;
36501;SDS011;25393;46.108;3.390;2022-07-12T12:03:22;4.03;;;2.88;;
36501;SDS011;25393;46.108;3.390;2022-07-12T12:05:51;5.10;;;2.60;;
36501;SDS011;25393;46.108;3.390;2022-07-12T12:08:18;4.43;;;2.50;;
36501;SDS011;25393;46.108;3.390;2022-07-12T12:10:55;2.53;;;2.33;;
36501;SDS011;25393;46.108;3.390;2022-07-12T12:13:24;2.90;;;2.65;;
36501;SDS011;25393;46.108;3.390;2022-07-12T12:15:54;12.32;;;4.65;;
36501;SDS011;25393;46.108;3.390;2022-07-12T12:18:28;2.15;;;2.05;;
36501;SDS011;25393;46.108;3.390;2022-07-12T12:20:58;2.55;;;2.35;;
36501;SDS011;25393;46.108;3.390;2022-07-12T12:23:26;4.40;;;3.25;;
36501;SDS011;25393;46.108;3.390;2022-07-12T12:26:07;7.32;;;6.93;;
36501;SDS011;25393;46.108;3.390;2022-07-12T12:28:50;2.85;;;2.65;;
36501;SDS011;25393;46.108;3.390;2022-07-12T12:31:19;2.95;;;2.08;;
36501;SDS011;25393;46.108;3.390;2022-07-12T12:33:51;2.83;;;2.50;;
36501;SDS011;25393;46.108;3.390;2022-07-12T12:38:51;2.60;;;2.40;;
36501;SDS011;25393;46.108;3.390;2022-07-12T12:41:23;3.95;;;3.75;;
36501;SDS011;25393;46.108;3.390;2022-07-12T12:49:16;2.50;;;2.20;;
36501;SDS011;25393;46.108;3.390;2022-07-12T12:51:53;2.42;;;2.22;;
36501;SDS011;25393;46.108;3.390;2022-07-12T12:54:34;5.05;;;2.58;;
36501;SDS011;25393;46.108;3.390;2022-07-12T12:57:02;2.70;;;2.50;;
36501;SDS011;25393;46.108;3.390;2022-07-12T12:59:30;4.10;;;3.90;;
36501;SDS011;25393;46.108;3.390;2022-07-12T13:01:56;4.07;;;2.53;;
36501;SDS011;25393;46.108;3.390;2022-07-12T13:04:27;2.90;;;2.63;;
36501;SDS011;25393;46.108;3.390;2022-07-12T13:06:54;2.30;;;2.20;;
36501;SDS011;25393;46.108;3.390;2022-07-12T13:09:22;2.50;;;2.40;;
36501;SDS011;25393;46.108;3.390;2022-07-12T13:11:49;2.30;;;2.20;;
36501;SDS011;25393;46.108;3.390;2022-07-12T13:14:16;2.50;;;2.28;;
36501;SDS011;25393;46.108;3.390;2022-07-12T13:16:42;3.70;;;3.50;;
36501;SDS011;25393;46.108;3.390;2022-07-12T13:19:09;2.85;;;2.70;;
36501;SDS011;25393;46.108;3.390;2022-07-12T13:21:36;2.67;;;2.50;;
36501;SDS011;25393;46.108;3.390;2022-07-12T13:24:02;2.47;;;2.28;;
36501;SDS011;25393;46.108;3.390;2022-07-12T13:26:29;4.95;;;4.75;;
36501;SDS011;25393;46.108;3.390;2022-07-12T13:28:56;6.97;;;3.50;;
36501;SDS011;25393;46.108;3.390;2022-07-12T13:31:23;2.40;;;2.30;;
36501;SDS011;25393;46.108;3.390;2022-07-12T13:33:50;2.35;;;2.25;;
36501;SDS011;25393;46.108;3.390;2022-07-12T13:36:16;3.33;;;2.30;;
36501;SDS011;25393;46.108;3.390;2022-07-12T13:38:43;3.60;;;2.38;;
36501;SDS011;25393;46.108;3.390;2022-07-12T13:41:09;2.65;;;2.45;;
36501;SDS011;25393;46.108;3.390;2022-07-12T13:43:36;2.25;;;2.15;;
36501;SDS011;25393;46.108;3.390;2022-07-12T13:46:03;5.20;;;3.38;;
36501;SDS011;25393;46.108;3.390;2022-07-12T13:48:29;4.95;;;2.50;;
36501;SDS011;25393;46.108;3.390;2022-07-12T13:50:56;2.83;;;2.63;;
36501;SDS011;25393;46.108;3.390;2022-07-12T13:53:43;2.50;;;2.40;;
36501;SDS011;25393;46.108;3.390;2022-07-12T13:56:10;3.70;;;3.50;;
36501;SDS011;25393;46.108;3.390;2022-07-12T13:58:36;2.60;;;2.50;;
36501;SDS011;25393;46.108;3.390;2022-07-12T14:01:03;3.55;;;2.83;;
36501;SDS011;25393;46.108;3.390;2022-07-12T14:03:30;5.43;;;2.92;;
36501;SDS011;25393;46.108;3.390;2022-07-12T14:05:56;2.78;;;2.58;;
36501;SDS011;25393;46.108;3.390;2022-07-12T14:08:23;2.88;;;2.78;;
36501;SDS011;25393;46.108;3.390;2022-07-12T14:10:49;2.80;;;2.70;;
36501;SDS011;25393;46.108;3.390;2022-07-12T14:13:16;2.70;;;2.60;;
36501;SDS011;25393;46.108;3.390;2022-07-12T14:15:43;9.23;;;8.57;;
36501;SDS011;25393;46.108;3.390;2022-07-12T14:18:11;3.15;;;2.95;;
36501;SDS011;25393;46.108;3.390;2022-07-12T14:20:38;3.22;;;3.00;;
36501;SDS011;25393;46.108;3.390;2022-07-12T14:23:05;3.20;;;3.00;;
36501;SDS011;25393;46.108;3.390;2022-07-12T14:25:32;3.10;;;2.80;;
36501;SDS011;25393;46.108;3.390;2022-07-12T14:28:00;5.88;;;3.10;;
36501;SDS011;25393;46.108;3.390;2022-07-12T14:30:27;2.80;;;2.70;;
36501;SDS011;25393;46.108;3.390;2022-07-12T14:32:53;3.17;;;2.75;;
36501;SDS011;25393;46.108;3.390;2022-07-12T14:35:21;2.90;;;2.70;;
36501;SDS011;25393;46.108;3.390;2022-07-12T14:37:47;3.63;;;2.60;;
36501;SDS011;25393;46.108;3.390;2022-07-12T14:40:14;2.60;;;2.50;;
36501;SDS011;25393;46.108;3.390;2022-07-12T14:42:41;2.65;;;2.45;;
36501;SDS011;25393;46.108;3.390;2022-07-12T14:45:08;2.60;;;2.30;;
36501;SDS011;25393;46.108;3.390;2022-07-12T14:47:34;2.63;;;2.42;;
36501;SDS011;25393;46.108;3.390;2022-07-12T14:50:01;2.35;;;2.25;;
36501;SDS011;25393;46.108;3.390;2022-07-12T14:52:31;2.85;;;2.55;;
36501;SDS011;25393;46.108;3.390;2022-07-12T14:54:58;2.30;;;2.20;;
36501;SDS011;25393;46.108;3.390;2022-07-12T14:57:25;2.40;;;2.30;;
36501;SDS011;25393;46.108;3.390;2022-07-12T14:59:51;2.50;;;2.30;;
36501;SDS011;25393;46.108;3.390;2022-07-12T15:02:18;7.43;;;2.80;;
36501;SDS011;25393;46.108;3.390;2022-07-12T15:04:45;2.58;;;2.45;;
36501;SDS011;25393;46.108;3.390;2022-07-12T15:07:11;3.40;;;2.20;;
36501;SDS011;25393;46.108;3.390;2022-07-12T15:09:38;3.67;;;2.15;;
36501;SDS011;25393;46.108;3.390;2022-07-12T15:12:04;2.15;;;2.05;;
36501;SDS011;25393;46.108;3.390;2022-07-12T15:14:31;2.95;;;2.30;;
36501;SDS011;25393;46.108;3.390;2022-07-12T15:17:01;3.83;;;2.65;;
36501;SDS011;25393;46.108;3.390;2022-07-12T15:19:28;2.50;;;2.22;;
36501;SDS011;25393;46.108;3.390;2022-07-12T15:21:55;2.85;;;2.55;;
36501;SDS011;25393;46.108;3.390;2022-07-12T15:24:24;2.25;;;2.15;;
36501;SDS011;25393;46.108;3.390;2022-07-12T15:26:50;2.10;;;2.00;;